Time;durP1;ratioP1;P1;durP2;ratioP2;P2;SDS_P1;SDS_P2;PMS_P1;PMS_P2;Temp;Humidity;BMP_temperature;BMP_pressure;BME280_temperature;BME280_humidity;BME280_pressure;Samples;Min_cycle;Max_cycle;Signal;HPM_P1;HPM_P2
2023/04/10 00:00:08;;;;;;;6.82;3.85;;;9.10;99.90;;;9.10;86.19;101640.22;5132361;28;20105;-87
2023/04/10 00:02:41;;;;;;;7.20;4.10;;;9.00;99.90;;;9.06;86.39;101638.25;5132671;28;20070;-88
2023/04/10 00:05:13;;;;;;;6.80;3.90;;;9.00;99.90;;;9.01;87.02;101631.94;5149183;28;20058;-88
2023/04/10 00:07:45;;;;;;;6.72;3.83;;;9.00;99.90;;;8.94;87.83;101633.31;5132308;28;20139;-88
2023/04/10 00:10:17;;;;;;;6.47;3.58;;;8.90;99.90;;;8.91;88.72;101625.34;5131355;28;20110;-90
2023/04/10 00:12:50;;;;;;;7.05;3.70;;;8.90;99.90;;;8.85;89.55;101627.59;5131826;28;20043;-89
2023/04/10 00:15:24;;;;;;;6.55;3.42;;;8.80;99.90;;;8.78;90.09;101621.97;5128794;28;20414;-89
2023/04/10 00:17:56;;;;;;;6.68;3.70;;;8.80;99.90;;;8.72;90.93;101622.53;5130531;28;20425;-90
2023/04/10 00:20:28;;;;;;;6.82;3.50;;;8.70;99.90;;;8.67;91.31;101623.97;5130694;28;20043;-89
2023/04/10 00:23:00;;;;;;;7.28;3.80;;;8.60;99.90;;;8.61;91.76;101627.16;5126746;28;20048;-88
2023/04/10 00:25:32;;;;;;;7.55;3.80;;;8.60;99.90;;;8.56;92.03;101609.50;5131396;28;20059;-89
2023/04/10 00:28:05;;;;;;;7.00;4.13;;;8.50;99.90;;;8.53;92.68;101599.81;5148974;28;20066;-87
2023/04/10 00:30:38;;;;;;;7.82;3.65;;;8.50;99.90;;;8.52;92.97;101607.53;5130641;28;20047;-89
2023/04/10 00:33:10;;;;;;;5.90;3.50;;;8.50;99.90;;;8.48;93.16;101613.41;5128201;28;20079;-90
2023/04/10 00:35:42;;;;;;;6.55;3.63;;;8.50;99.90;;;8.41;93.66;101597.47;5145440;28;20113;-91
2023/04/10 00:38:15;;;;;;;5.97;3.33;;;8.40;99.90;;;8.40;94.15;101605.13;5137620;28;20051;-87
2023/04/10 00:40:47;;;;;;;6.53;3.85;;;8.40;99.90;;;8.34;94.60;101595.25;5147950;28;20067;-88
2023/04/10 00:43:20;;;;;;;8.45;4.03;;;8.30;99.90;;;8.31;94.77;101594.22;5147991;28;20039;-89
2023/04/10 00:45:54;;;;;;;5.85;3.63;;;8.30;99.90;;;8.26;95.60;101596.53;5141461;28;20051;-89
2023/04/10 00:48:26;;;;;;;7.22;3.60;;;8.30;99.90;;;8.23;95.88;101595.50;5134091;28;20047;-89
2023/04/10 00:50:59;;;;;;;6.72;3.70;;;8.20;99.90;;;8.18;96.46;101603.00;5151661;28;20053;-88
2023/04/10 00:53:32;;;;;;;8.32;3.83;;;8.20;99.90;;;8.16;96.18;101596.84;5148992;28;20521;-89
2023/04/10 00:56:04;;;;;;;6.22;3.47;;;8.20;99.90;;;8.14;95.94;101593.25;5135227;28;20057;-89
2023/04/10 00:58:37;;;;;;;6.13;3.33;;;8.10;99.90;;;8.09;96.15;101593.00;5135383;28;20066;-89
2023/04/10 01:01:10;;;;;;;6.57;3.13;;;8.10;99.90;;;8.08;96.07;101582.50;5135025;28;20402;-87
2023/04/10 01:03:44;;;;;;;6.90;3.50;;;8.00;99.90;;;8.06;96.50;101590.22;5143700;28;20066;-89
2023/04/10 01:06:27;;;;;;;7.55;3.97;;;8.10;99.90;;;8.03;96.72;101590.03;5132344;28;20105;-87
2023/04/10 01:09:09;;;;;;;6.70;3.30;;;8.00;99.90;;;8.00;96.76;101588.97;5135249;28;20385;-87
2023/04/10 01:11:51;;;;;;;7.55;4.18;;;8.00;99.90;;;7.99;96.58;101584.59;5138361;28;20496;-88
2023/04/10 01:14:32;;;;;;;6.85;4.40;;;8.00;99.90;;;7.95;97.31;101582.59;5152781;28;20065;-88
2023/04/10 01:17:10;;;;;;;8.27;3.80;;;7.90;99.90;;;7.93;97.29;101585.13;5130206;28;20055;-87
2023/04/10 01:20:00;;;;;;;7.60;3.88;;;7.90;99.90;;;7.94;97.16;101586.91;5135172;28;20053;-89
2023/04/10 01:22:45;;;;;;;7.43;4.07;;;7.90;99.90;;;7.95;96.91;101582.59;5147738;28;20051;-88
2023/04/10 01:25:39;;;;;;;8.63;4.75;;;7.90;99.90;;;7.99;97.08;101572.50;5128029;28;20689;-88
2023/04/10 01:28:45;;;;;;;6.75;3.92;;;8.00;99.90;;;8.06;96.45;101576.34;5135757;28;20042;-87
2023/04/10 01:31:25;;;;;;;8.70;4.50;;;8.00;99.90;;;8.13;95.54;101573.28;5137989;28;20051;-89
2023/04/10 01:34:03;;;;;;;9.35;4.55;;;8.10;99.90;;;8.20;94.19;101570.22;5132556;28;20043;-89
2023/04/10 01:36:42;;;;;;;8.07;4.47;;;8.20;99.90;;;8.28;92.74;101553.38;5134186;28;20051;-89
2023/04/10 01:39:19;;;;;;;11.88;5.53;;;8.30;99.90;;;8.31;90.83;101550.03;5143735;28;20463;-88
2023/04/10 01:41:55;;;;;;;11.70;5.55;;;8.40;99.90;;;8.40;90.48;101542.78;5135551;28;20042;-88
2023/04/10 01:44:41;;;;;;;8.57;4.80;;;8.50;99.90;;;8.50;89.48;101534.69;5133042;28;20050;-89
2023/04/10 01:47:17;;;;;;;10.48;5.50;;;8.60;99.90;;;8.54;88.42;101541.88;5131943;28;20055;-90
2023/04/10 01:49:50;;;;;;;12.48;4.80;;;8.60;99.90;;;8.61;87.76;101522.31;5143952;28;20413;-88
2023/04/10 01:52:23;;;;;;;8.48;4.68;;;8.70;99.90;;;8.65;87.68;101530.31;5135167;28;20051;-89
2023/04/10 01:55:06;;;;;;;12.80;5.10;;;8.70;99.90;;;8.69;86.70;101524.50;5130578;28;20073;-88
2023/04/10 01:57:47;;;;;;;7.97;4.32;;;8.70;99.90;;;8.74;86.52;101535.16;5139303;28;20047;-87
2023/04/10 02:00:19;;;;;;;10.48;4.75;;;8.80;99.90;;;8.79;86.02;101524.97;5150878;28;20390;-87
2023/04/10 02:02:53;;;;;;;9.85;5.13;;;8.80;99.90;;;8.78;85.68;101523.19;5134536;28;20043;-88
2023/04/10 02:05:30;;;;;;;10.57;5.45;;;8.90;99.90;;;8.80;85.34;101529.34;5134650;28;20054;-88
2023/04/10 02:08:12;;;;;;;7.93;5.28;;;8.90;99.90;;;8.83;84.87;101524.34;5129400;28;20146;-88
2023/04/10 02:10:52;;;;;;;7.97;4.20;;;8.90;99.90;;;8.88;84.88;101518.56;5122311;28;20043;-87
2023/04/10 02:13:26;;;;;;;7.93;4.80;;;8.90;99.90;;;8.88;84.34;101518.56;5130822;28;20058;-89
2023/04/10 02:16:02;;;;;;;8.93;4.60;;;8.90;99.90;;;8.88;84.42;101513.38;5134510;28;20050;-88
2023/04/10 02:18:36;;;;;;;9.95;5.38;;;9.00;99.90;;;8.87;84.03;101509.00;5133192;28;20065;-89
2023/04/10 02:21:09;;;;;;;9.85;4.82;;;8.90;99.90;;;8.88;84.07;101502.97;5135110;28;20049;-88
2023/04/10 02:23:41;;;;;;;8.93;4.75;;;8.90;99.90;;;8.88;83.67;101497.78;5149951;28;20046;-88
2023/04/10 02:26:14;;;;;;;8.85;4.55;;;8.90;99.90;;;8.85;83.83;101497.59;5134351;28;20081;-88
2023/04/10 02:28:46;;;;;;;9.55;4.78;;;8.90;99.90;;;8.83;83.55;101495.75;5149019;28;20047;-88
2023/04/10 02:31:18;;;;;;;7.60;4.32;;;8.90;99.90;;;8.82;83.95;101492.25;5150488;28;20454;-84
2023/04/10 02:33:52;;;;;;;8.02;4.30;;;8.90;99.90;;;8.80;83.74;101496.50;5145860;28;20034;-87
2023/04/10 02:36:24;;;;;;;9.02;4.60;;;8.90;99.90;;;8.78;83.76;101498.09;5146371;28;20075;-87
2023/04/10 02:39:00;;;;;;;11.85;5.43;;;8.80;99.90;;;8.76;83.83;101493.63;5148251;28;20059;-87
2023/04/10 02:41:33;;;;;;;8.68;4.32;;;8.80;99.90;;;8.71;83.58;101493.38;5137598;28;20050;-88
2023/04/10 02:44:08;;;;;;;;;;;8.80;99.90;;;8.72;84.36;101492.56;5138441;28;20071;-87
2023/04/10 02:46:40;;;;;;;8.77;4.13;;;8.80;99.90;;;8.70;83.91;101496.78;5152181;28;20049;-87
2023/04/10 02:49:14;;;;;;;9.60;5.10;;;8.80;99.90;;;8.67;83.63;101499.22;5133525;28;20047;-87
2023/04/10 02:51:46;;;;;;;10.60;4.93;;;8.80;99.90;;;8.68;83.40;101498.44;5134182;28;20041;-87
2023/04/10 02:54:19;;;;;;;8.73;5.00;;;8.80;99.90;;;8.69;83.30;101505.41;5143792;28;20429;-87
2023/04/10 02:56:51;;;;;;;9.23;4.53;;;8.80;99.90;;;8.72;83.63;101510.75;5144687;28;20571;-88
2023/04/10 02:59:23;;;;;;;7.60;4.25;;;8.80;99.90;;;8.75;83.38;101500.53;5151637;28;20101;-87
2023/04/10 03:01:56;;;;;;;7.68;4.60;;;8.80;99.90;;;8.74;83.21;101509.16;5135924;28;20051;-88
2023/04/10 03:04:32;;;;;;;9.45;4.82;;;8.80;99.90;;;8.73;83.01;101503.84;5150330;28;20085;-88
2023/04/10 03:07:04;;;;;;;7.95;4.00;;;8.80;99.90;;;8.77;83.02;101495.41;5131852;28;20146;-88
2023/04/10 03:09:37;;;;;;;9.40;4.45;;;8.90;99.90;;;8.81;82.85;101500.88;5148123;28;20066;-87
2023/04/10 03:12:09;;;;;;;9.40;4.22;;;8.90;99.90;;;8.84;82.97;101490.63;5150262;28;20054;-87
2023/04/10 03:14:41;;;;;;;7.38;4.50;;;8.90;99.90;;;8.82;82.93;101492.25;5133959;28;20053;-87
2023/04/10 03:17:13;;;;;;;8.35;4.20;;;8.90;99.90;;;8.84;82.77;101484.53;5134176;28;20082;-87
2023/04/10 03:19:47;;;;;;;7.85;4.07;;;8.90;99.90;;;8.82;82.60;101487.06;5140637;28;20045;-87
2023/04/10 03:22:19;;;;;;;8.55;4.53;;;8.90;99.90;;;8.80;82.57;101488.69;5147666;28;20417;-86
2023/04/10 03:24:51;;;;;;;10.40;5.05;;;8.90;99.90;;;8.75;82.58;101484.94;5134571;28;20039;-87
2023/04/10 03:27:23;;;;;;;8.45;4.22;;;8.80;99.90;;;8.74;82.87;101482.22;5133819;28;20051;-87
2023/04/10 03:29:55;;;;;;;9.20;4.55;;;8.80;99.90;;;8.73;82.85;101486.53;5134782;28;20053;-87
2023/04/10 03:32:29;;;;;;;8.10;3.90;;;8.80;99.90;;;8.75;82.35;101482.34;5131249;28;20387;-88
2023/04/10 03:35:04;;;;;;;7.05;4.55;;;8.80;99.90;;;8.76;82.51;101481.53;5142222;28;20047;-87
2023/04/10 03:37:37;;;;;;;7.85;4.25;;;8.80;99.90;;;8.77;82.60;101467.72;5132769;28;20045;-88
2023/04/10 03:40:10;;;;;;;8.95;4.63;;;8.80;99.90;;;8.76;82.33;101471.13;5133511;28;20524;-87
2023/04/10 03:42:43;;;;;;;8.55;4.75;;;8.80;99.90;;;8.68;82.73;101462.03;5154404;28;20130;-87
2023/04/10 03:45:15;;;;;;;8.82;4.90;;;8.80;99.90;;;8.66;82.11;101455.84;5135172;28;20047;-88
2023/04/10 03:47:47;;;;;;;9.55;4.68;;;8.80;99.90;;;8.69;82.21;101451.72;5133628;28;20043;-87
2023/04/10 03:50:22;;;;;;;7.85;4.40;;;8.80;99.90;;;8.68;81.98;101451.63;5122536;28;20032;-87
2023/04/10 03:53:00;;;;;;;10.18;4.65;;;8.80;99.90;;;8.71;82.22;101441.38;5128829;28;20438;-88
2023/04/10 03:55:32;;;;;;;8.68;4.32;;;8.80;99.90;;;8.73;81.60;101439.75;5128668;28;20055;-87
2023/04/10 03:58:07;;;;;;;9.23;4.72;;;8.80;99.90;;;8.70;81.82;101448.28;5127397;28;20043;-86
2023/04/10 04:00:40;;;;;;;8.00;4.53;;;8.80;99.90;;;8.72;81.64;101443.16;5130711;28;20047;-88
2023/04/10 04:03:23;;;;;;;8.90;4.43;;;8.80;99.90;;;8.75;81.61;101448.56;5124262;28;20142;-85
2023/04/10 04:06:06;;;;;;;8.45;4.78;;;8.80;99.90;;;8.72;81.27;101437.06;5145190;28;20047;-86
2023/04/10 04:08:46;;;;;;;7.78;4.10;;;8.80;99.90;;;8.71;81.22;101436.19;5130094;28;20326;-88
2023/04/10 04:11:53;;;;;;;8.18;4.72;;;8.80;99.90;;;8.73;81.46;101438.88;5068217;29;20524;-87
2023/04/10 04:14:52;;;;;;;8.70;4.13;;;8.80;99.90;;;8.73;81.28;101434.56;5122780;28;20055;-87
2023/04/10 04:17:45;;;;;;;7.32;4.13;;;8.90;99.90;;;8.70;81.17;101434.41;5140455;28;20118;-88
2023/04/10 04:20:49;;;;;;;8.32;4.38;;;8.80;99.90;;;8.68;81.30;101428.25;5121255;28;20039;-86
2023/04/10 04:23:38;;;;;;;9.25;4.60;;;8.80;99.90;;;8.67;81.30;101431.63;5132721;28;20417;-87
2023/04/10 04:26:17;;;;;;;8.10;4.40;;;8.80;99.90;;;8.63;81.84;101432.31;5153199;28;20066;-86
2023/04/10 04:29:17;;;;;;;7.78;5.00;;;8.80;99.90;;;8.57;82.35;101430.28;5131784;28;20053;-87
2023/04/10 04:32:00;;;;;;;9.45;4.30;;;8.70;99.90;;;8.56;81.90;101430.19;5128866;28;20532;-88
2023/04/10 04:34:58;;;;;;;9.73;4.60;;;8.70;99.90;;;8.56;81.79;101440.59;5147560;28;20107;-86
2023/04/10 04:37:56;;;;;;;9.80;4.75;;;8.70;99.90;;;8.54;81.96;101443.13;5136704;28;20114;-88
2023/04/10 04:40:48;;;;;;;9.30;5.13;;;8.60;99.90;;;8.48;81.98;101436.69;5135438;28;20122;-87
2023/04/10 04:43:38;;;;;;;9.85;4.90;;;8.60;99.90;;;8.45;82.39;101436.53;5141976;28;20113;-88
2023/04/10 04:46:23;;;;;;;8.77;4.10;;;8.60;99.90;;;8.43;82.57;101445.13;5136133;28;20416;-88
2023/04/10 04:49:03;;;;;;;8.70;4.85;;;8.60;99.90;;;8.40;82.79;101439.75;5136081;28;20034;-89
2023/04/10 04:51:47;;;;;;;9.50;4.47;;;8.60;99.90;;;8.43;82.63;101439.94;5134626;28;20385;-87
2023/04/10 04:54:32;;;;;;;8.65;4.93;;;8.60;99.90;;;8.42;82.47;101437.25;5143410;28;20043;-88
2023/04/10 04:57:24;;;;;;;10.85;4.97;;;8.60;99.90;;;8.42;82.71;101440.75;5142466;28;20149;-88
2023/04/10 05:00:32;;;;;;;10.63;5.03;;;8.60;99.90;;;8.41;82.81;101436.38;5146237;28;20134;-88
2023/04/10 05:03:14;;;;;;;9.73;5.15;;;8.60;99.90;;;8.41;82.86;101436.38;5151414;28;20137;-88
2023/04/10 05:05:58;;;;;;;8.68;4.53;;;8.60;99.90;;;8.38;82.48;101432.69;5132162;28;20043;-88
2023/04/10 05:08:40;;;;;;;11.88;5.63;;;8.60;99.90;;;8.37;82.92;101426.63;5129193;28;20050;-89
2023/04/10 05:11:34;;;;;;;9.20;4.97;;;8.50;99.90;;;8.44;82.74;101435.63;5130493;28;20051;-89
2023/04/10 05:14:40;;;;;;;8.43;4.95;;;8.60;99.90;;;8.49;82.97;101428.97;5134233;28;20051;-88
2023/04/10 05:17:32;;;;;;;10.13;4.72;;;8.60;99.90;;;8.53;82.78;101430.91;5139206;28;20074;-88
2023/04/10 05:20:23;;;;;;;9.68;5.00;;;8.60;99.90;;;8.52;82.91;101428.22;5144993;28;20038;-88
2023/04/10 05:23:15;;;;;;;11.43;5.45;;;8.70;99.90;;;8.58;82.60;101423.38;5148621;28;20059;-89
2023/04/10 05:25:51;;;;;;;9.57;4.95;;;8.70;99.90;;;8.61;82.35;101427.03;5151366;28;20043;-87
2023/04/10 05:28:42;;;;;;;10.40;4.85;;;8.80;99.90;;;8.70;82.13;101434.41;5161466;23;20078;-80
2023/04/10 05:31:39;;;;;;;12.68;5.10;;;8.80;99.90;;;8.77;82.19;101441.72;5170972;28;20047;-79
2023/04/10 05:34:21;;;;;;;10.25;4.95;;;8.90;99.90;;;8.81;81.58;101435.88;5168745;28;20053;-80
2023/04/10 05:37:15;;;;;;;10.95;5.32;;;8.90;99.90;;;8.87;81.03;101444.00;5147044;28;20042;-80
2023/04/10 05:39:52;;;;;;;9.50;4.90;;;9.00;99.90;;;8.88;80.94;101435.38;5147042;28;20133;-79
2023/04/10 05:42:41;;;;;;;10.38;4.80;;;9.10;99.90;;;8.97;80.83;101435.84;5147282;28;20054;-81
2023/04/10 05:45:22;;;;;;;9.88;5.05;;;9.10;99.90;;;9.09;80.75;101437.28;5158612;28;20583;-80
2023/04/10 05:48:14;;;;;;;9.68;4.40;;;9.20;99.90;;;9.19;80.74;101437.84;5161077;28;20172;-80
2023/04/10 05:50:55;;;;;;;11.38;5.30;;;9.30;99.90;;;9.27;79.50;101451.22;5166871;28;20034;-80
2023/04/10 05:53:40;;;;;;;10.65;6.03;;;9.30;99.60;;;9.36;79.29;101456.00;5147213;28;20052;-79
2023/04/10 05:56:31;;;;;;;9.90;5.05;;;9.40;99.50;;;9.44;78.86;101457.25;5140663;28;20074;-79
2023/04/10 05:59:22;;;;;;;12.68;4.70;;;9.50;99.30;;;9.56;78.28;101463.06;5163665;28;20258;-80
2023/04/10 06:02:23;;;;;;;9.60;5.22;;;9.60;99.00;;;9.81;78.03;101462.56;5150779;28;20055;-80
2023/04/10 06:04:56;;;;;;;9.30;4.57;;;9.80;99.00;;;10.14;76.99;101446.75;5148313;28;20042;-81
2023/04/10 06:07:31;;;;;;;9.57;5.15;;;10.00;98.70;;;10.70;75.54;101448.50;5147630;28;20495;-79
2023/04/10 06:10:04;;;;;;;9.85;4.78;;;10.30;98.30;;;11.64;72.78;101442.09;5141199;28;20050;-81
2023/04/10 06:12:40;;;;;;;9.38;5.05;;;11.00;97.70;;;12.56;68.45;101436.97;5142327;28;20047;-82
2023/04/10 06:15:15;;;;;;;8.88;5.25;;;11.70;95.50;;;13.14;65.96;101439.03;5141464;28;20066;-82
2023/04/10 06:17:47;;;;;;;10.63;5.50;;;12.30;93.80;;;13.41;63.40;101442.63;5144671;28;20047;-82
2023/04/10 06:20:22;;;;;;;9.50;5.15;;;12.60;91.40;;;13.88;61.61;101437.16;5152151;28;20057;-82
2023/04/10 06:22:55;;;;;;;7.50;4.53;;;13.10;90.10;;;14.59;60.19;101435.84;5162074;28;20106;-83
2023/04/10 06:25:28;;;;;;;8.45;4.90;;;13.60;88.40;;;15.04;58.20;101445.84;5149465;28;20050;-83
2023/04/10 06:28:00;;;;;;;9.45;4.82;;;14.10;84.60;;;15.20;56.57;101434.91;5157774;28;20045;-82
2023/04/10 06:30:33;;;;;;;7.45;4.22;;;14.40;80.60;;;15.27;56.12;101428.97;5173674;28;20046;-81
2023/04/10 06:33:08;;;;;;;9.10;4.75;;;14.60;79.40;;;15.39;55.84;101433.63;5164742;28;20058;-82
2023/04/10 06:35:46;;;;;;;7.80;4.65;;;14.70;78.20;;;15.59;55.40;101434.13;5138877;28;20089;-81
2023/04/10 06:38:18;;;;;;;8.50;4.88;;;14.90;77.20;;;16.02;54.90;101433.41;5142656;28;20562;-82
2023/04/10 06:40:50;;;;;;;9.40;5.05;;;15.20;76.40;;;16.24;53.13;101437.44;5149160;28;20050;-86
2023/04/10 06:43:23;;;;;;;10.55;5.10;;;15.50;73.60;;;16.16;53.23;101433.72;5155751;28;20047;-85
2023/04/10 06:45:55;;;;;;;9.27;4.57;;;15.60;72.90;;;16.05;53.77;101428.25;5165265;28;20069;-85
2023/04/10 06:48:28;;;;;;;7.70;4.78;;;15.50;73.00;;;16.38;52.42;101435.09;5134649;28;20051;-83
2023/04/10 06:51:01;;;;;;;8.48;4.43;;;15.70;71.90;;;16.89;52.42;101437.94;5137092;28;20489;-82
2023/04/10 06:53:33;;;;;;;7.22;3.97;;;16.00;71.80;;;17.29;51.68;101439.53;5152735;28;20049;-83
2023/04/10 06:56:07;;;;;;;7.50;4.53;;;16.40;71.00;;;16.86;51.45;101447.50;5160382;28;20393;-83
2023/04/10 06:58:40;;;;;;;7.47;4.55;;;16.30;69.20;;;17.00;51.47;101452.16;5141330;28;20059;-81
2023/04/10 07:01:12;;;;;;;7.65;4.55;;;16.40;69.10;;;17.23;50.58;101452.59;5164019;28;20038;-84
2023/04/10 07:03:44;;;;;;;8.45;4.35;;;16.60;68.30;;;17.49;50.75;101457.44;5143662;28;20532;-84
2023/04/10 07:06:17;;;;;;;8.80;4.90;;;16.80;68.30;;;17.71;50.12;101458.69;5169832;28;20050;-84
2023/04/10 07:08:50;;;;;;;8.82;4.68;;;17.00;67.00;;;18.14;50.04;101452.34;5147159;28;20051;-85
2023/04/10 07:11:22;;;;;;;8.75;4.35;;;17.40;67.40;;;18.58;49.25;101455.59;5167769;28;20579;-83
2023/04/10 07:13:57;;;;;;;8.98;5.20;;;17.70;66.10;;;18.41;48.88;101452.72;5156561;28;20046;-84
2023/04/10 07:16:29;;;;;;;8.55;4.70;;;17.80;65.40;;;18.28;50.39;101450.78;5155069;28;20042;-79
2023/04/10 07:19:01;;;;;;;7.07;4.38;;;17.80;66.20;;;18.17;51.12;101445.34;5153143;28;20126;-81
2023/04/10 07:21:35;;;;;;;9.50;4.85;;;17.80;66.70;;;18.39;49.84;101443.03;5131859;28;20058;-87
2023/04/10 07:24:07;;;;;;;7.22;4.47;;;17.90;65.60;;;18.65;48.54;101438.94;5152184;28;20046;-85
2023/04/10 07:26:40;;;;;;;8.15;4.20;;;18.10;63.90;;;19.01;48.85;101437.59;5161917;28;20039;-86
2023/04/10 07:29:12;;;;;;;7.95;4.55;;;18.30;64.50;;;19.32;47.89;101435.28;5169493;28;20121;-87
2023/04/10 07:31:44;;;;;;;7.20;4.43;;;18.60;63.10;;;19.57;47.51;101424.03;5160188;28;20046;-84
2023/04/10 07:34:16;;;;;;;7.10;4.63;;;18.70;63.10;;;19.64;47.09;101425.88;5144334;28;20047;-83
2023/04/10 07:36:50;;;;;;;8.13;4.65;;;18.80;62.60;;;19.30;46.91;101429.97;5143708;28;20062;-82
2023/04/10 07:39:22;;;;;;;6.80;4.05;;;18.60;61.70;;;18.88;48.42;101425.13;5154341;28;20057;-82
2023/04/10 07:41:54;;;;;;;6.88;4.38;;;18.30;63.10;;;18.90;48.87;101418.09;5145338;28;20106;-82
2023/04/10 07:44:27;;;;;;;7.90;4.45;;;18.20;63.60;;;18.97;48.00;101415.56;5156972;28;20390;-84
2023/04/10 07:46:59;;;;;;;7.00;4.25;;;18.20;62.80;;;19.22;47.44;101406.09;5138888;28;20061;-82
2023/04/10 07:49:31;;;;;;;6.95;4.28;;;18.30;62.40;;;19.32;47.95;101406.19;5159456;28;20157;-81
2023/04/10 07:52:05;;;;;;;7.38;4.07;;;18.40;63.10;;;19.38;47.38;101406.25;5142738;28;20481;-83
2023/04/10 07:54:37;;;;;;;6.65;3.95;;;18.40;62.30;;;19.05;45.96;101412.13;5155951;28;20073;-83
2023/04/10 07:57:09;;;;;;;6.72;3.78;;;18.30;60.70;;;18.52;47.75;101410.63;5164924;28;20042;-88
2023/04/10 07:59:41;;;;;;;5.95;3.95;;;17.90;61.90;;;18.35;47.70;101406.88;5164124;28;20043;-84
2023/04/10 08:02:13;;;;;;;6.68;3.80;;;17.70;61.70;;;18.20;48.31;101393.50;5161290;28;20126;-85
2023/04/10 08:04:45;;;;;;;6.35;3.90;;;17.60;62.50;;;18.33;48.07;101390.16;5146844;28;20497;-84
2023/04/10 08:07:20;;;;;;;6.70;4.03;;;17.50;62.40;;;18.67;48.43;101397.63;5161589;28;20050;-84
2023/04/10 08:09:52;;;;;;;5.53;3.53;;;17.70;63.20;;;19.03;47.22;101387.41;5150997;28;20058;-85
2023/04/10 08:12:24;;;;;;;5.07;3.30;;;17.90;62.20;;;19.51;45.95;101390.50;5151220;28;20054;-84
2023/04/10 08:14:57;;;;;;;6.80;3.70;;;18.20;61.30;;;19.91;45.10;101390.78;5137492;28;20050;-86
2023/04/10 08:17:30;;;;;;;6.72;3.70;;;18.50;60.50;;;20.16;44.37;101383.88;5162816;28;20069;-86
2023/04/10 08:20:02;;;;;;;5.50;3.97;;;18.70;59.50;;;20.19;43.58;101386.53;5168253;28;20550;-87
2023/04/10 08:22:36;;;;;;;6.93;4.10;;;18.80;58.70;;;19.68;44.46;101380.06;5143353;28;20103;-83
2023/04/10 08:25:09;;;;;;;7.13;3.75;;;18.60;58.80;;;19.80;43.99;101381.91;5131305;28;20057;-83
2023/04/10 08:27:41;;;;;;;6.28;4.03;;;18.60;58.50;;;19.88;43.71;101382.81;5131345;28;20061;-84
2023/04/10 08:30:14;;;;;;;5.40;3.20;;;18.60;58.20;;;20.27;43.50;101386.56;5150006;28;20043;-81
2023/04/10 08:32:46;;;;;;;5.93;3.17;;;18.80;58.50;;;20.62;42.24;101373.50;5140045;28;20424;-86
2023/04/10 08:35:18;;;;;;;5.28;3.47;;;19.10;57.10;;;21.38;42.02;101362.97;5150877;28;21853;-83
2023/04/10 08:37:51;;;;;;;4.57;3.40;;;19.60;57.40;;;21.71;41.10;101376.22;5139806;28;20046;-84
2023/04/10 08:40:23;;;;;;;5.75;3.75;;;19.80;56.40;;;22.12;40.36;101374.38;5159410;28;20042;-83
2023/04/10 08:42:55;;;;;;;6.60;3.42;;;20.20;55.60;;;22.41;38.89;101360.97;5163583;28;20061;-83
2023/04/10 08:45:27;;;;;;;6.05;3.72;;;20.50;54.00;;;21.96;39.75;101356.69;5136000;28;20039;-85
2023/04/10 08:48:02;;;;;;;5.22;3.30;;;20.40;54.30;;;21.39;40.25;101354.16;5155631;28;20039;-85
2023/04/10 08:50:37;;;;;;;4.85;3.15;;;20.10;54.30;;;21.17;40.63;101349.69;5137835;28;20069;-84
2023/04/10 08:53:13;;;;;;;4.90;3.15;;;19.90;54.60;;;20.79;41.47;101349.66;5159108;28;20050;-84
2023/04/10 08:55:45;;;;;;;4.07;2.92;;;19.60;55.10;;;20.70;41.72;101342.59;5132955;28;20417;-85
2023/04/10 08:58:18;;;;;;;4.78;2.75;;;19.50;55.50;;;20.23;42.17;101339.78;5165202;28;20393;-85
2023/04/10 09:00:51;;;;;;;4.47;2.90;;;19.20;55.70;;;20.39;42.54;101332.75;5166306;28;20390;-84
2023/04/10 09:03:23;;;;;;;5.72;3.17;;;19.20;56.40;;;20.49;42.29;101335.50;5145074;28;20039;-84
2023/04/10 09:05:56;;;;;;;5.20;3.13;;;19.30;56.00;;;20.63;40.80;101322.28;5137212;28;20050;-84
2023/04/10 09:08:29;;;;;;;4.68;2.70;;;19.40;55.00;;;20.52;40.66;101318.72;5138419;28;20055;-85
2023/04/10 09:11:01;;;;;;;3.95;2.67;;;19.40;54.30;;;20.39;40.49;101312.47;5146491;28;20042;-84
2023/04/10 09:13:39;;;;;;;4.30;2.80;;;19.30;53.90;;;20.13;40.98;101307.09;5171683;28;20042;-84
2023/04/10 09:16:13;;;;;;;4.53;2.47;;;19.20;54.20;;;19.89;40.72;101302.59;5160096;28;20046;-84
2023/04/10 09:18:49;;;;;;;4.03;2.72;;;19.10;53.80;;;19.22;41.19;101310.94;5168236;28;20046;-84
2023/04/10 09:21:22;;;;;;;4.72;2.90;;;18.70;53.60;;;18.80;42.61;101284.19;5161918;28;20052;-83
2023/04/10 09:24:01;;;;;;;3.58;2.65;;;18.40;54.90;;;18.64;43.19;101278.72;5146407;28;20054;-84
2023/04/10 09:26:34;;;;;;;4.13;2.63;;;18.20;55.40;;;18.35;43.52;101274.91;5168727;28;20054;-84
2023/04/10 09:29:09;;;;;;;4.85;3.20;;;18.00;55.80;;;17.89;43.70;101274.41;5134023;28;20054;-84
2023/04/10 09:31:42;;;;;;;4.15;2.72;;;17.60;55.70;;;17.75;44.37;101270.69;5157884;28;20039;-85
2023/04/10 09:34:17;;;;;;;4.57;2.60;;;17.50;56.30;;;17.78;44.41;101265.44;5169011;28;20050;-84
2023/04/10 09:36:56;;;;;;;5.53;2.75;;;17.40;56.40;;;17.79;45.10;101272.50;5134197;28;20416;-83
2023/04/10 09:39:39;;;;;;;4.40;2.78;;;17.40;57.10;;;17.84;45.58;101265.53;5155951;28;20034;-85
2023/04/10 09:42:12;;;;;;;5.70;2.95;;;17.40;57.80;;;17.63;45.33;101256.44;5144804;28;20053;-84
2023/04/10 09:44:45;;;;;;;4.57;2.78;;;17.30;57.30;;;17.44;46.63;101257.06;5134801;28;20073;-85
2023/04/10 09:47:20;;;;;;;4.40;3.05;;;17.10;58.50;;;17.52;46.51;101263.31;5136692;28;20058;-84
2023/04/10 09:49:54;;;;;;;4.95;3.00;;;17.10;58.50;;;17.35;46.87;101270.13;5160742;28;20042;-84
2023/04/10 09:52:28;;;;;;;4.78;2.95;;;17.00;58.90;;;17.52;46.68;101268.59;5148384;28;20445;-84
2023/04/10 09:55:03;;;;;;;3.97;2.65;;;17.10;58.80;;;17.60;46.43;101264.34;5148637;28;20179;-84
2023/04/10 09:57:36;;;;;;;3.75;2.25;;;17.20;58.90;;;17.84;47.04;101260.25;5138495;28;20464;-85
2023/04/10 10:00:11;;;;;;;3.72;2.55;;;17.30;59.00;;;18.11;44.99;101243.88;5155245;28;20062;-85
2023/04/10 10:02:43;;;;;;;4.28;2.45;;;17.50;57.50;;;18.16;45.92;101244.81;5150540;28;20060;-84
2023/04/10 10:05:15;;;;;;;4.20;2.75;;;17.60;58.40;;;18.23;45.58;101237.84;5159764;28;20061;-83
2023/04/10 10:07:48;;;;;;;4.43;2.80;;;17.70;58.20;;;18.40;45.60;101249.47;5167052;28;20046;-84
2023/04/10 10:10:21;;;;;;;4.22;2.67;;;17.80;58.00;;;18.48;44.75;101234.59;5161757;28;20524;-84
2023/04/10 10:13:00;;;;;;;8.65;3.00;;;17.90;57.30;;;18.58;44.83;101262.84;5158843;28;20544;-84
2023/04/10 10:15:41;;;;;;;5.05;3.00;;;18.00;57.40;;;18.49;43.86;101241.63;5158951;28;20501;-85
2023/04/10 10:18:25;;;;;;;3.90;2.50;;;18.00;56.30;;;18.55;44.31;101228.47;5160673;28;20050;-84
2023/04/10 10:20:57;;;;;;;3.53;2.25;;;18.00;56.90;;;18.61;43.52;101220.63;5132657;28;20047;-83
2023/04/10 10:23:32;;;;;;;3.40;2.70;;;18.10;55.90;;;18.60;43.58;101229.41;5162651;28;20053;-85
2023/04/10 10:26:06;;;;;;;4.57;2.97;;;18.10;55.90;;;18.65;43.42;101225.06;5159768;28;20433;-83
2023/04/10 10:28:40;;;;;;;3.67;2.60;;;18.10;55.90;;;18.72;43.73;101222.50;5142088;28;20047;-85
2023/04/10 10:31:13;;;;;;;4.38;2.80;;;18.20;56.20;;;18.63;43.14;101229.44;5151385;28;20050;-84
2023/04/10 10:33:46;;;;;;;3.67;2.45;;;18.10;55.50;;;18.55;43.69;101231.13;5134538;28;20059;-84
2023/04/10 10:36:19;;;;;;;4.82;2.58;;;18.10;55.80;;;18.63;44.15;101208.31;5160885;28;20113;-85
2023/04/10 10:39:05;;;;;;;3.97;2.55;;;18.10;56.50;;;18.58;43.90;101209.13;5168776;28;20042;-84
2023/04/10 10:41:50;;;;;;;3.95;2.60;;;18.10;56.10;;;18.68;43.55;101195.19;5147069;28;20046;-84
2023/04/10 10:44:36;;;;;;;3.92;2.22;;;18.20;55.80;;;18.86;43.97;101179.47;5175642;28;20042;-83
2023/04/10 10:47:15;;;;;;;4.35;2.65;;;18.30;56.20;;;18.82;43.40;101177.69;5133944;28;20054;-83
2023/04/10 10:49:56;;;;;;;3.45;2.30;;;18.30;55.60;;;18.87;43.40;101161.88;5157734;28;20050;-83
2023/04/10 10:52:56;;;;;;;3.83;2.22;;;18.40;55.70;;;18.86;42.90;101154.81;5136108;28;20058;-84
2023/04/10 10:55:33;;;;;;;3.28;2.45;;;18.40;55.10;;;18.80;43.50;101149.50;5130762;28;20047;-84
2023/04/10 10:58:10;;;;;;;4.22;2.60;;;18.40;55.50;;;18.83;43.30;101152.16;5132420;28;20066;-83
2023/04/10 11:01:04;;;;;;;2.95;2.22;;;18.40;55.40;;;18.84;43.61;101135.41;5130332;28;20046;-83